Time;durP1;ratioP1;P1;durP2;ratioP2;P2;SDS_P1;SDS_P2;PMS_P1;PMS_P2;Temp;Humidity;BMP_temperature;BMP_pressure;BME280_temperature;BME280_humidity;BME280_pressure;Samples;Min_cycle;Max_cycle;Signal;HPM_P1;HPM_P2
2021/11/23 00:01:47;;;;;;;3.05;1.55;;;14.80;84.00;;;;;;4061585;29;20051;-63
2021/11/23 00:04:16;;;;;;;2.67;1.52;;;14.90;84.10;;;;;;4061303;29;20051;-62
2021/11/23 00:06:38;;;;;;;6.18;1.60;;;14.80;84.30;;;;;;4061098;29;20134;-62
2021/11/23 00:09:01;;;;;;;3.00;1.60;;;14.80;84.20;;;;;;4061051;29;20056;-62
2021/11/23 00:11:23;;;;;;;4.15;1.52;;;14.80;84.30;;;;;;4060900;29;20040;-62
2021/11/23 00:13:45;;;;;;;2.95;1.20;;;14.80;84.20;;;;;;4061141;29;20060;-62
2021/11/23 00:16:10;;;;;;;6.00;1.98;;;14.80;84.30;;;;;;4061023;29;20052;-61
2021/11/23 00:18:34;;;;;;;1.55;1.40;;;14.80;84.30;;;;;;4060630;29;20048;-62
2021/11/23 00:20:56;;;;;;;4.45;1.50;;;14.80;84.40;;;;;;4061109;29;20052;-61
2021/11/23 00:23:19;;;;;;;3.13;1.38;;;14.80;84.50;;;;;;4060334;29;20062;-61
2021/11/23 00:25:42;;;;;;;2.90;1.38;;;14.80;84.90;;;;;;4061136;29;20055;-61
2021/11/23 00:28:04;;;;;;;3.67;1.38;;;14.90;84.90;;;;;;4060746;29;20040;-60
2021/11/23 00:30:27;;;;;;;6.00;1.95;;;15.00;84.60;;;;;;4060752;29;20060;-60
2021/11/23 00:32:49;;;;;;;4.85;1.50;;;15.10;84.20;;;;;;4060742;29;20056;-61
2021/11/23 00:35:13;;;;;;;5.88;1.70;;;15.20;84.00;;;;;;4060703;29;20113;-60
2021/11/23 00:37:35;;;;;;;4.75;1.77;;;15.30;83.60;;;;;;4060300;29;20083;-60
2021/11/23 00:39:58;;;;;;;4.97;1.38;;;15.30;83.50;;;;;;4061139;29;20059;-61
2021/11/23 00:42:20;;;;;;;4.85;1.35;;;15.30;83.30;;;;;;4060528;29;20108;-61
2021/11/23 00:44:42;;;;;;;3.22;1.73;;;15.30;83.10;;;;;;4061215;29;20070;-60
2021/11/23 00:47:04;;;;;;;4.50;1.30;;;15.40;83.10;;;;;;4060524;29;20055;-61
2021/11/23 00:49:27;;;;;;;3.78;1.45;;;15.40;83.00;;;;;;4060279;29;20143;-60
2021/11/23 00:51:50;;;;;;;2.47;1.20;;;15.40;83.10;;;;;;4060412;29;20143;-63
2021/11/23 00:54:13;;;;;;;4.28;1.55;;;15.40;83.00;;;;;;4059978;29;20076;-63
2021/11/23 00:56:35;;;;;;;3.67;1.67;;;15.40;83.00;;;;;;4060306;29;20051;-63
2021/11/23 00:58:58;;;;;;;2.53;1.52;;;15.30;83.80;;;;;;4060566;29;20044;-64
2021/11/23 01:01:20;;;;;;;6.00;2.13;;;15.30;83.00;;;;;;4060439;29;20123;-63
2021/11/23 01:03:42;;;;;;;4.68;1.58;;;15.30;83.10;;;;;;4060193;29;20111;-63
2021/11/23 01:06:04;;;;;;;5.97;1.40;;;15.30;83.10;;;;;;4060053;29;20059;-63
2021/11/23 01:08:37;;;;;;;3.80;1.10;;;15.30;83.20;;;;;;4060305;29;20610;-63
2021/11/23 01:10:59;;;;;;;2.20;1.00;;;15.30;83.20;;;;;;4058468;29;20079;-63
2021/11/23 01:13:21;;;;;;;3.50;1.45;;;15.30;83.30;;;;;;4060594;29;20056;-63
2021/11/23 01:15:44;;;;;;;2.20;1.65;;;15.20;83.20;;;;;;4060190;29;20527;-63
2021/11/23 01:18:06;;;;;;;2.72;1.38;;;15.30;84.20;;;;;;4060504;29;20117;-63
2021/11/23 01:20:28;;;;;;;2.90;1.10;;;15.20;84.10;;;;;;4060667;29;20135;-61
2021/11/23 01:22:51;;;;;;;3.17;1.33;;;15.20;83.30;;;;;;4060113;29;20060;-61
2021/11/23 01:25:16;;;;;;;2.13;1.23;;;15.20;83.60;;;;;;4060198;29;20544;-61
2021/11/23 01:27:38;;;;;;;2.20;1.30;;;15.20;84.10;;;;;;4059942;29;20111;-60
2021/11/23 01:30:00;;;;;;;4.35;1.30;;;15.20;84.10;;;;;;4058915;29;20055;-63
2021/11/23 01:32:23;;;;;;;4.07;1.38;;;15.30;83.90;;;;;;4060087;29;20060;-63
2021/11/23 01:34:45;;;;;;;2.95;1.52;;;15.30;83.60;;;;;;4060571;29;20139;-63
2021/11/23 01:37:07;;;;;;;3.85;1.50;;;15.40;83.50;;;;;;4060022;29;20059;-64
2021/11/23 01:39:29;;;;;;;3.25;1.50;;;15.40;83.40;;;;;;4059930;29;20665;-64
2021/11/23 01:41:52;;;;;;;4.85;1.80;;;15.50;83.30;;;;;;4059799;29;20056;-64
2021/11/23 01:44:14;;;;;;;2.30;1.10;;;15.50;83.30;;;;;;4059774;29;20088;-63
2021/11/23 01:46:37;;;;;;;2.88;1.10;;;15.50;83.20;;;;;;4059341;29;20055;-63
2021/11/23 01:48:58;;;;;;;3.35;1.20;;;15.50;83.10;;;;;;4059469;29;20048;-63
2021/11/23 01:51:20;;;;;;;2.10;1.35;;;15.50;83.20;;;;;;4059833;29;20051;-63
2021/11/23 01:53:43;;;;;;;3.22;1.48;;;15.40;83.20;;;;;;4059745;29;20065;-63
2021/11/23 01:56:05;;;;;;;2.70;1.30;;;15.40;83.20;;;;;;4059730;29;20048;-64
2021/11/23 01:58:28;;;;;;;3.15;1.30;;;15.50;83.60;;;;;;4059479;29;20495;-64
2021/11/23 02:00:51;;;;;;;3.13;1.50;;;15.50;83.50;;;;;;4059938;29;20059;-63
2021/11/23 02:03:13;;;;;;;3.03;1.20;;;15.60;83.20;;;;;;4059881;29;20059;-63
2021/11/23 02:05:36;;;;;;;3.80;1.25;;;15.70;82.90;;;;;;4059464;29;20067;-63
2021/11/23 02:07:58;;;;;;;1.95;1.08;;;15.70;82.60;;;;;;4060708;29;20387;-61
2021/11/23 02:10:20;;;;;;;1.92;0.77;;;15.70;82.40;;;;;;4059531;29;20377;-61
2021/11/23 02:12:44;;;;;;;1.48;1.00;;;15.70;82.50;;;;;;4059288;29;20068;-61
2021/11/23 02:15:11;;;;;;;3.03;1.35;;;15.70;82.30;;;;;;4059589;29;20496;-61
2021/11/23 02:17:33;;;;;;;3.53;1.38;;;15.70;82.30;;;;;;4059300;29;20479;-61
2021/11/23 02:19:57;;;;;;;3.20;0.98;;;15.70;82.50;;;;;;4059263;29;20159;-61
2021/11/23 02:22:19;;;;;;;2.85;1.15;;;15.70;82.50;;;;;;4059408;29;20133;-61
2021/11/23 02:24:41;;;;;;;3.65;1.27;;;15.70;82.60;;;;;;4059503;29;20044;-61
2021/11/23 02:27:03;;;;;;;3.88;1.10;;;15.60;82.70;;;;;;4059656;29;20086;-61
2021/11/23 02:29:25;;;;;;;3.17;1.13;;;15.60;82.80;;;;;;4059489;29;20056;-61
2021/11/23 02:31:47;;;;;;;3.00;1.00;;;15.60;83.00;;;;;;4059549;29;20056;-61
2021/11/23 02:34:11;;;;;;;3.55;1.00;;;15.60;83.00;;;;;;4059543;29;20075;-61
2021/11/23 02:36:36;;;;;;;4.82;2.20;;;15.60;83.30;;;;;;4059153;29;20058;-60
2021/11/23 02:38:58;;;;;;;1.27;0.90;;;15.60;83.30;;;;;;4059810;29;20055;-61
2021/11/23 02:41:21;;;;;;;2.58;0.73;;;15.70;83.10;;;;;;4059624;29;20048;-60
2021/11/23 02:43:44;;;;;;;1.52;1.08;;;15.80;82.60;;;;;;4059189;29;20144;-61
2021/11/23 02:46:06;;;;;;;3.28;0.82;;;15.90;82.20;;;;;;4059318;29;20107;-60
2021/11/23 02:48:28;;;;;;;3.47;0.98;;;15.90;81.90;;;;;;4059200;29;20075;-61
2021/11/23 02:50:56;;;;;;;1.77;0.65;;;16.00;81.70;;;;;;4059392;29;20477;-61
2021/11/23 02:53:19;;;;;;;1.33;0.60;;;16.00;81.60;;;;;;4059517;29;20056;-61
2021/11/23 02:55:41;;;;;;;1.60;0.68;;;16.00;81.60;;;;;;4059532;29;20052;-61
2021/11/23 02:58:05;;;;;;;2.17;0.70;;;15.90;82.50;;;;;;4059269;29;20048;-61
2021/11/23 03:00:29;;;;;;;1.33;0.68;;;15.90;81.70;;;;;;4059214;29;20139;-61
2021/11/23 03:02:52;;;;;;;2.10;0.70;;;15.90;81.90;;;;;;4062081;29;20055;-61
2021/11/23 03:05:16;;;;;;;1.83;0.90;;;15.90;82.00;;;;;;4062549;29;20056;-61
2021/11/23 03:07:39;;;;;;;2.50;0.98;;;15.80;82.10;;;;;;4062336;29;20099;-63
2021/11/23 03:10:04;;;;;;;3.15;0.82;;;15.80;82.20;;;;;;4062015;29;20623;-61
2021/11/23 03:12:27;;;;;;;4.68;1.05;;;15.80;82.40;;;;;;4061732;29;20052;-61
2021/11/23 03:14:50;;;;;;;2.10;0.80;;;15.70;82.50;;;;;;4061922;29;20414;-62
2021/11/23 03:17:13;;;;;;;2.85;0.90;;;15.70;82.70;;;;;;4062247;29;20416;-62
2021/11/23 03:19:36;;;;;;;1.17;0.57;;;15.70;83.00;;;;;;4060476;29;20062;-61
2021/11/23 03:21:58;;;;;;;2.03;0.82;;;15.70;83.20;;;;;;4060850;29;20093;-61
2021/11/23 03:24:21;;;;;;;3.72;1.20;;;15.70;83.00;;;;;;4061973;29;20083;-61
2021/11/23 03:26:44;;;;;;;1.63;0.98;;;15.80;83.10;;;;;;4061609;29;20500;-61
2021/11/23 03:29:06;;;;;;;1.95;0.77;;;15.80;83.30;;;;;;4061638;29;20044;-61
2021/11/23 03:31:28;;;;;;;2.25;0.60;;;15.90;82.40;;;;;;4061683;29;20079;-61
2021/11/23 03:33:50;;;;;;;3.63;1.50;;;15.90;82.30;;;;;;4061985;29;20173;-61
2021/11/23 03:36:12;;;;;;;2.63;0.80;;;15.90;82.30;;;;;;4061667;29;20052;-61
2021/11/23 03:38:34;;;;;;;2.60;0.88;;;15.90;82.40;;;;;;4061455;29;20052;-61
2021/11/23 03:40:56;;;;;;;4.72;0.80;;;15.80;82.40;;;;;;4061990;29;20086;-61
2021/11/23 03:43:20;;;;;;;2.95;0.70;;;15.80;82.40;;;;;;4047255;29;20056;-61
2021/11/23 03:45:43;;;;;;;5.03;0.80;;;15.80;82.40;;;;;;4061233;29;20143;-60
2021/11/23 03:48:06;;;;;;;3.83;0.88;;;15.80;82.50;;;;;;4061615;29;20056;-61
2021/11/23 03:50:28;;;;;;;2.30;1.00;;;15.80;82.50;;;;;;4060972;29;20060;-61
2021/11/23 03:52:50;;;;;;;2.75;0.80;;;15.80;82.70;;;;;;4061541;29;20048;-62
2021/11/23 03:55:15;;;;;;;2.55;1.02;;;15.80;83.50;;;;;;4061443;29;20124;-62
2021/11/23 03:57:37;;;;;;;3.90;1.02;;;15.80;82.60;;;;;;4062055;29;20056;-62
2021/11/23 04:00:02;;;;;;;2.33;0.98;;;15.80;82.70;;;;;;4061427;29;20051;-62
2021/11/23 04:02:32;;;;;;;5.30;0.80;;;15.80;82.70;;;;;;4061180;29;20056;-62
2021/11/23 04:04:54;;;;;;;3.88;0.80;;;15.80;82.70;;;;;;4061680;29;20052;-61
2021/11/23 04:07:17;;;;;;;2.67;0.73;;;15.80;82.70;;;;;;4061160;29;20064;-61
2021/11/23 04:09:39;;;;;;;5.07;0.98;;;15.80;82.80;;;;;;4060912;29;20139;-62
2021/11/23 04:12:01;;;;;;;2.80;0.75;;;15.80;82.80;;;;;;4061076;29;20063;-61
2021/11/23 04:14:24;;;;;;;7.40;1.00;;;15.90;82.60;;;;;;4060811;29;20100;-61
2021/11/23 04:16:47;;;;;;;3.60;1.20;;;15.90;82.30;;;;;;4061225;29;20503;-61
2021/11/23 04:19:09;;;;;;;7.28;0.93;;;16.00;82.10;;;;;;4061256;29;20130;-62
2021/11/23 04:21:31;;;;;;;5.78;1.10;;;16.00;82.10;;;;;;4061067;29;20568;-62
2021/11/23 04:23:54;;;;;;;7.93;1.50;;;16.00;82.00;;;;;;4061147;29;20062;-62
2021/11/23 04:26:17;;;;;;;5.72;1.20;;;16.00;82.10;;;;;;4060866;29;20142;-62
2021/11/23 04:28:39;;;;;;;5.13;1.13;;;16.00;82.10;;;;;;4060627;29;20052;-62
2021/11/23 04:31:01;;;;;;;5.93;1.20;;;15.90;82.20;;;;;;4061010;29;20051;-62
2021/11/23 04:33:25;;;;;;;7.53;1.25;;;15.90;82.30;;;;;;4060925;29;20075;-62
2021/11/23 04:35:47;;;;;;;7.40;1.85;;;15.90;82.40;;;;;;4061015;29;20067;-61
2021/11/23 04:38:09;;;;;;;6.03;1.75;;;15.80;82.50;;;;;;4060393;29;20059;-62
2021/11/23 04:40:31;;;;;;;3.50;0.80;;;15.80;82.80;;;;;;4060676;29;20567;-61
2021/11/23 04:42:53;;;;;;;2.65;1.30;;;15.80;82.80;;;;;;4060919;29;20048;-62
2021/11/23 04:45:16;;;;;;;6.40;0.95;;;15.80;83.00;;;;;;4060664;29;20072;-61
2021/11/23 04:47:39;;;;;;;8.32;1.20;;;15.80;83.00;;;;;;4060327;29;20053;-62
2021/11/23 04:50:03;;;;;;;5.30;1.00;;;15.80;83.10;;;;;;4059903;29;20056;-62
2021/11/23 04:52:25;;;;;;;6.05;1.30;;;15.80;83.90;;;;;;4060497;29;20083;-62
2021/11/23 04:54:47;;;;;;;7.32;1.33;;;15.90;83.00;;;;;;4060795;29;20134;-62
2021/11/23 04:57:09;;;;;;;4.10;1.20;;;15.90;82.80;;;;;;4060632;29;20048;-63
2021/11/23 04:59:31;;;;;;;5.40;1.55;;;15.90;82.60;;;;;;4059270;29;20079;-62
2021/11/23 05:01:53;;;;;;;4.63;1.00;;;15.90;82.50;;;;;;4059879;29;20151;-62
2021/11/23 05:04:16;;;;;;;14.27;2.58;;;15.90;82.50;;;;;;4060564;29;20131;-62
2021/11/23 05:06:40;;;;;;;7.20;1.10;;;15.90;82.70;;;;;;4060092;29;20635;-62
2021/11/23 05:09:02;;;;;;;4.20;1.00;;;15.90;82.80;;;;;;4060395;29;20453;-61
2021/11/23 05:11:27;;;;;;;4.30;1.15;;;16.00;82.80;;;;;;4060505;29;20403;-61
2021/11/23 05:13:52;;;;;;;5.40;1.23;;;16.00;82.40;;;;;;4060253;29;20060;-61
2021/11/23 05:16:14;;;;;;;5.82;1.20;;;16.10;82.20;;;;;;4059705;29;20071;-61
2021/11/23 05:18:36;;;;;;;5.57;0.93;;;16.10;82.00;;;;;;4060240;29;20584;-61
2021/11/23 05:21:00;;;;;;;3.85;1.20;;;16.10;81.90;;;;;;4060229;29;20563;-61
2021/11/23 05:23:23;;;;;;;8.73;1.45;;;16.10;81.80;;;;;;4060197;29;20475;-61
2021/11/23 05:25:45;;;;;;;3.58;0.98;;;16.10;81.60;;;;;;4059373;29;20108;-61
2021/11/23 05:28:07;;;;;;;4.75;0.95;;;16.10;81.80;;;;;;4059639;29;20052;-61
2021/11/23 05:30:29;;;;;;;5.88;1.02;;;16.10;81.80;;;;;;4060057;29;20423;-61
2021/11/23 05:32:52;;;;;;;3.92;0.85;;;16.10;81.70;;;;;;4059547;29;20053;-60
2021/11/23 05:35:14;;;;;;;6.45;0.90;;;16.10;81.80;;;;;;4059708;29;20138;-61
2021/11/23 05:37:37;;;;;;;3.60;0.95;;;16.10;82.60;;;;;;4060032;29;21009;-61
2021/11/23 05:40:00;;;;;;;2.60;1.00;;;16.00;81.80;;;;;;4059392;29;20056;-61
2021/11/23 05:42:22;;;;;;;5.43;0.88;;;16.00;81.80;;;;;;4059627;29;20062;-61
2021/11/23 05:44:44;;;;;;;2.83;0.90;;;16.00;82.00;;;;;;4060583;29;20056;-61
2021/11/23 05:47:07;;;;;;;6.78;1.10;;;15.90;82.10;;;;;;4060178;29;20476;-61
2021/11/23 05:49:29;;;;;;;3.45;1.17;;;16.00;82.30;;;;;;4059855;29;20150;-62
2021/11/23 05:51:53;;;;;;;2.72;0.70;;;16.00;82.30;;;;;;4059297;29;20099;-61
2021/11/23 05:54:15;;;;;;;2.97;1.17;;;16.00;82.20;;;;;;4060036;29;20052;-61
2021/11/23 05:56:39;;;;;;;5.45;0.95;;;16.00;82.10;;;;;;4059378;29;20056;-61
2021/11/23 05:59:01;;;;;;;8.98;1.95;;;16.10;82.00;;;;;;4059411;29;20107;-62
2021/11/23 06:01:23;;;;;;;6.85;1.27;;;16.20;82.00;;;;;;4059801;29;20138;-60
2021/11/23 06:03:45;;;;;;;7.03;1.52;;;16.20;81.60;;;;;;4060012;29;20131;-61
2021/11/23 06:06:07;;;;;;;6.70;1.23;;;16.30;81.20;;;;;;4058877;29;21001;-61
2021/11/23 06:08:30;;;;;;;6.55;1.30;;;16.30;81.00;;;;;;4059529;29;20055;-62
2021/11/23 06:10:52;;;;;;;5.00;1.00;;;16.40;80.70;;;;;;4059595;29;20059;-61
2021/11/23 06:13:16;;;;;;;7.05;1.30;;;16.40;80.70;;;;;;4059504;29;20059;-61
2021/11/23 06:15:40;;;;;;;5.68;1.20;;;16.30;80.70;;;;;;4059227;29;20551;-61
2021/11/23 06:18:02;;;;;;;3.78;1.40;;;16.30;80.80;;;;;;4059680;29;20052;-62
2021/11/23 06:20:24;;;;;;;4.55;1.00;;;16.30;80.80;;;;;;4059037;29;20044;-62
2021/11/23 06:22:46;;;;;;;5.18;1.00;;;16.30;80.90;;;;;;4059326;29;20684;-62
2021/11/23 06:25:09;;;;;;;4.78;0.95;;;16.20;80.90;;;;;;4059315;29;20103;-63
2021/11/23 06:27:31;;;;;;;4.00;0.80;;;16.20;81.10;;;;;;4059345;29;20162;-63
2021/11/23 06:29:55;;;;;;;6.63;1.13;;;16.20;81.20;;;;;;4059255;29;20400;-63
2021/11/23 06:32:17;;;;;;;4.95;1.23;;;16.10;81.40;;;;;;4059256;29;20674;-62
2021/11/23 06:34:39;;;;;;;6.00;1.23;;;16.20;81.80;;;;;;4059177;29;20055;-64
2021/11/23 06:37:01;;;;;;;5.40;1.10;;;16.20;81.70;;;;;;4060794;29;20535;-63
2021/11/23 06:39:26;;;;;;;5.88;1.40;;;16.20;81.80;;;;;;4062236;29;20130;-63
2021/11/23 06:41:48;;;;;;;6.65;1.20;;;16.30;82.00;;;;;;4062151;29;20131;-62
2021/11/23 06:44:10;;;;;;;6.28;1.35;;;16.30;81.80;;;;;;4062312;29;20134;-63
2021/11/23 06:46:34;;;;;;;6.40;1.73;;;16.40;81.60;;;;;;4060869;29;20394;-63
2021/11/23 06:48:56;;;;;;;10.07;2.40;;;16.40;81.40;;;;;;4060429;29;20131;-63
2021/11/23 06:51:18;;;;;;;6.00;1.20;;;16.40;81.30;;;;;;4046545;29;20052;-63
2021/11/23 06:53:40;;;;;;;3.80;1.70;;;16.30;81.00;;;;;;4060327;29;20067;-63
2021/11/23 06:56:02;;;;;;;5.85;1.20;;;16.30;81.00;;;;;;4060373;29;20052;-63
2021/11/23 06:58:25;;;;;;;6.13;1.30;;;16.30;81.00;;;;;;4060647;29;20056;-63
2021/11/23 07:00:47;;;;;;;4.25;1.20;;;16.20;80.90;;;;;;4060865;29;20070;-62
2021/11/23 07:03:10;;;;;;;4.63;1.30;;;16.20;81.10;;;;;;4059999;29;20079;-61
2021/11/23 07:05:32;;;;;;;4.85;1.25;;;16.10;81.60;;;;;;4060867;29;20059;-62
2021/11/23 07:08:14;;;;;;;7.80;1.55;;;16.10;82.20;;;;;;4060033;29;20056;-63
2021/11/23 07:10:38;;;;;;;4.28;1.17;;;16.10;82.40;;;;;;4059657;29;20138;-64
2021/11/23 07:13:00;;;;;;;4.50;1.10;;;16.10;82.20;;;;;;4058773;29;20054;-64
2021/11/23 07:15:22;;;;;;;6.32;1.50;;;16.00;82.20;;;;;;4058289;29;20445;-64
2021/11/23 07:17:45;;;;;;;7.22;1.10;;;16.00;82.40;;;;;;4058696;29;20100;-64
2021/11/23 07:20:09;;;;;;;7.45;1.77;;;16.00;82.60;;;;;;4057361;29;20092;-64
2021/11/23 07:22:31;;;;;;;4.82;1.40;;;15.90;83.00;;;;;;4058720;29;20055;-64
2021/11/23 07:24:53;;;;;;;5.43;1.25;;;15.90;83.10;;;;;;4058559;29;20440;-64
2021/11/23 07:27:16;;;;;;;5.95;1.35;;;15.90;82.90;;;;;;4058091;29;20052;-63
2021/11/23 07:29:38;;;;;;;5.57;0.95;;;15.90;82.80;;;;;;4059076;29;20499;-64
2021/11/23 07:32:01;;;;;;;4.45;1.00;;;15.90;82.70;;;;;;4058234;29;20136;-64
2021/11/23 07:34:23;;;;;;;5.57;0.98;;;15.90;82.70;;;;;;4051812;29;20072;-64
2021/11/23 07:36:47;;;;;;;5.90;1.13;;;15.90;82.70;;;;;;4059741;29;20048;-63
2021/11/23 07:39:09;;;;;;;4.97;0.98;;;15.90;82.70;;;;;;4050828;29;20059;-65
2021/11/23 07:41:31;;;;;;;6.28;1.05;;;15.80;82.70;;;;;;4059711;29;20127;-65
2021/11/23 07:43:53;;;;;;;7.20;1.40;;;15.80;82.50;;;;;;4058290;29;20066;-65
2021/11/23 07:46:16;;;;;;;7.32;1.27;;;15.80;82.10;;;;;;4058064;29;20048;-65
2021/11/23 07:48:38;;;;;;;4.55;1.00;;;15.80;81.90;;;;;;4058024;29;20468;-65
2021/11/23 07:51:00;;;;;;;10.30;1.50;;;15.80;81.90;;;;;;4058488;29;20530;-65
2021/11/23 07:53:24;;;;;;;6.78;1.30;;;15.80;81.70;;;;;;4058168;29;20580;-65
2021/11/23 07:55:49;;;;;;;5.10;1.52;;;15.80;82.30;;;;;;4058020;29;20605;-65
2021/11/23 07:58:11;;;;;;;2.90;1.20;;;15.80;81.20;;;;;;4057465;29;20484;-65
2021/11/23 08:00:33;;;;;;;7.85;1.88;;;15.80;80.90;;;;;;4057269;29;20131;-65
2021/11/23 08:02:55;;;;;;;7.10;1.63;;;15.80;80.70;;;;;;4058443;29;20060;-65
2021/11/23 08:05:18;;;;;;;4.40;1.52;;;15.80;80.70;;;;;;4057184;29;20052;-65
2021/11/23 08:07:40;;;;;;;8.38;1.30;;;15.80;80.80;;;;;;4042886;29;20044;-66
2021/11/23 08:10:04;;;;;;;3.72;1.05;;;15.80;80.70;;;;;;4058206;29;20052;-66
2021/11/23 08:12:26;;;;;;;3.38;1.33;;;15.80;80.50;;;;;;4060868;29;20641;-66
2021/11/23 08:14:48;;;;;;;4.88;1.52;;;15.80;80.70;;;;;;4061442;29;20481;-66
2021/11/23 08:17:10;;;;;;;6.38;1.75;;;15.80;80.70;;;;;;4061446;29;20047;-66
2021/11/23 08:19:33;;;;;;;8.45;1.83;;;15.80;80.50;;;;;;4061503;29;20066;-66
2021/11/23 08:21:55;;;;;;;9.88;2.00;;;15.80;80.70;;;;;;4061092;29;20055;-69
2021/11/23 08:24:17;;;;;;;7.70;1.52;;;15.80;80.70;;;;;;4060695;29;20408;-70
2021/11/23 08:26:41;;;;;;;3.60;1.30;;;15.90;80.50;;;;;;4060553;29;20135;-70
2021/11/23 08:29:03;;;;;;;4.00;1.40;;;16.00;80.00;;;;;;4060242;29;20063;-70
2021/11/23 08:31:25;;;;;;;2.47;1.08;;;16.00;79.60;;;;;;4060559;29;20108;-70
2021/11/23 08:33:47;;;;;;;4.72;1.42;;;16.00;79.40;;;;;;4059582;29;20460;-70
2021/11/23 08:36:10;;;;;;;7.95;1.50;;;16.00;79.30;;;;;;4060183;29;20052;-66
2021/11/23 08:38:32;;;;;;;4.93;1.73;;;16.00;79.20;;;;;;4060550;29;20052;-66
2021/11/23 08:40:54;;;;;;;6.82;1.35;;;16.00;80.00;;;;;;4057690;29;20131;-66
2021/11/23 08:43:18;;;;;;;3.83;1.40;;;16.00;79.40;;;;;;4060102;29;20126;-70
2021/11/23 08:45:41;;;;;;;3.10;1.40;;;15.90;79.30;;;;;;4060724;29;20488;-69
2021/11/23 08:48:04;;;;;;;5.55;1.55;;;15.90;79.40;;;;;;4060180;29;20583;-70
2021/11/23 08:50:27;;;;;;;6.28;1.48;;;15.90;79.60;;;;;;4060148;29;20060;-70
2021/11/23 08:52:49;;;;;;;3.10;1.73;;;15.80;79.60;;;;;;4060202;29;20146;-70
2021/11/23 08:55:13;;;;;;;4.93;1.55;;;15.80;79.70;;;;;;4060218;29;20131;-70
2021/11/23 08:57:35;;;;;;;6.80;1.40;;;15.80;79.90;;;;;;4060844;29;20056;-66
2021/11/23 09:00:12;;;;;;;8.43;1.90;;;15.70;80.00;;;;;;4059314;29;20052;-66
2021/11/23 09:02:34;;;;;;;7.25;2.00;;;15.60;80.00;;;;;;4059363;29;20131;-69
2021/11/23 09:04:57;;;;;;;5.18;1.65;;;15.60;80.30;;;;;;4060419;29;20417;-66
2021/11/23 09:07:21;;;;;;;5.90;1.90;;;15.60;80.50;;;;;;4059888;29;20066;-66
2021/11/23 09:09:44;;;;;;;2.90;1.70;;;15.60;80.60;;;;;;4060134;29;20055;-66
2021/11/23 09:12:09;;;;;;;9.02;1.65;;;15.50;80.70;;;;;;4058903;29;20044;-66
2021/11/23 09:14:33;;;;;;;5.57;1.80;;;15.50;81.00;;;;;;4060025;29;20126;-66
2021/11/23 09:16:57;;;;;;;5.10;1.55;;;15.50;81.20;;;;;;4060275;29;20349;-66
2021/11/23 09:19:19;;;;;;;3.42;1.60;;;15.40;81.30;;;;;;4058119;29;20044;-66
2021/11/23 09:21:41;;;;;;;4.18;1.92;;;15.40;81.50;;;;;;4057877;29;20143;-66
2021/11/23 09:24:03;;;;;;;4.43;1.75;;;15.40;82.00;;;;;;4057724;29;20051;-67
2021/11/23 09:26:26;;;;;;;5.13;1.20;;;15.30;82.10;;;;;;4056538;29;20489;-67
2021/11/23 09:28:49;;;;;;;6.03;1.30;;;15.30;82.50;;;;;;4055593;29;20060;-66
2021/11/23 09:31:11;;;;;;;6.47;1.40;;;15.30;82.70;;;;;;4058269;29;20056;-67
2021/11/23 09:33:35;;;;;;;10.75;1.60;;;15.30;82.70;;;;;;4057650;29;20962;-66
2021/11/23 09:35:57;;;;;;;3.38;1.40;;;15.20;82.60;;;;;;4020779;29;20508;-65
2021/11/23 09:38:19;;;;;;;4.45;1.65;;;15.20;82.90;;;;;;4053993;29;20059;-65
2021/11/23 09:40:42;;;;;;;7.03;1.50;;;15.30;83.00;;;;;;4056866;29;20059;-66
2021/11/23 09:43:04;;;;;;;4.75;2.08;;;15.40;82.80;;;;;;4057466;29;20044;-66
2021/11/23 09:45:26;;;;;;;4.65;1.30;;;15.40;82.30;;;;;;4059717;29;20056;-66
2021/11/23 09:47:48;;;;;;;4.32;1.50;;;15.50;82.10;;;;;;4060265;29;20433;-66
2021/11/23 09:50:12;;;;;;;5.25;1.27;;;15.50;81.80;;;;;;4059468;29;20059;-66
2021/11/23 09:52:35;;;;;;;7.20;1.30;;;15.50;81.40;;;;;;4057072;29;20063;-66
2021/11/23 09:54:57;;;;;;;8.35;1.70;;;15.60;81.30;;;;;;4057108;29;20099;-67
2021/11/23 09:57:19;;;;;;;8.38;1.80;;;15.60;81.30;;;;;;4057562;29;20086;-66
2021/11/23 09:59:41;;;;;;;6.65;1.65;;;15.50;81.10;;;;;;4058806;29;20051;-66
2021/11/23 10:02:04;;;;;;;8.32;1.40;;;15.50;81.10;;;;;;4060339;29;20138;-69
2021/11/23 10:04:58;;;;;;;6.70;1.88;;;15.50;81.00;;;;;;4065064;29;20507;-69
2021/11/23 10:07:21;;;;;;;10.98;1.85;;;15.50;82.00;;;;;;4064974;29;20055;-66
2021/11/23 10:09:45;;;;;;;9.30;2.00;;;15.50;81.50;;;;;;4064702;29;20052;-66
2021/11/23 10:12:21;;;;;;;6.72;1.55;;;15.50;81.90;;;;;;4068353;29;20143;-65
2021/11/23 10:15:13;;;;;;;8.57;2.15;;;15.50;81.90;;;;;;4068266;29;20064;-65
2021/11/23 10:17:36;;;;;;;3.35;1.50;;;15.40;82.00;;;;;;4066411;29;20052;-66
2021/11/23 10:19:58;;;;;;;6.40;1.60;;;15.40;82.30;;;;;;4066560;29;20056;-65
2021/11/23 10:22:32;;;;;;;5.25;1.25;;;15.40;82.50;;;;;;4068037;29;20134;-65
2021/11/23 10:25:02;;;;;;;7.07;1.38;;;15.40;82.50;;;;;;4068230;29;20194;-66
2021/11/23 10:27:24;;;;;;;1.97;1.37;;;15.40;82.60;;;;;;4068404;29;20063;-66
2021/11/23 10:29:50;;;;;;;9.52;2.20;;;15.30;82.80;;;;;;4067916;29;20052;-66
2021/11/23 10:32:14;;;;;;;6.45;1.27;;;15.30;82.80;;;;;;4067856;29;20059;-64
2021/11/23 10:34:36;;;;;;;6.68;1.30;;;15.30;82.80;;;;;;4066441;29;20052;-65
2021/11/23 10:37:00;;;;;;;7.80;1.55;;;15.30;83.30;;;;;;4068731;29;20056;-65
2021/11/23 10:39:26;;;;;;;6.65;2.47;;;15.40;83.50;;;;;;4067847;29;20064;-65
2021/11/23 10:41:53;;;;;;;6.45;1.30;;;15.50;83.10;;;;;;4067893;29;20056;-65
2021/11/23 10:44:19;;;;;;;14.35;2.65;;;15.60;82.90;;;;;;4067975;29;20067;-65
2021/11/23 10:46:43;;;;;;;2.35;1.00;;;15.60;82.70;;;;;;4067870;29;20087;-65
2021/11/23 10:49:05;;;;;;;5.82;1.10;;;15.60;82.50;;;;;;4067598;29;20170;-65
2021/11/23 10:51:37;;;;;;;7.38;1.50;;;15.70;82.60;;;;;;4067429;29;20068;-66
2021/11/23 10:54:12;;;;;;;2.13;0.82;;;15.60;81.80;;;;;;4067777;29;20056;-65
2021/11/23 10:56:55;;;;;;;3.67;1.10;;;15.60;81.80;;;;;;4067876;29;20060;-66
2021/11/23 10:59:17;;;;;;;3.40;0.85;;;15.60;82.10;;;;;;4067531;29;20060;-65
2021/11/23 11:01:39;;;;;;;8.50;1.30;;;15.60;82.80;;;;;;4067671;29;20060;-65
2021/11/23 11:04:01;;;;;;;4.00;1.10;;;15.60;83.00;;;;;;4067304;29;20508;-65
2021/11/23 11:06:24;;;;;;;3.70;0.93;;;15.70;82.80;;;;;;4067083;29;20424;-65
2021/11/23 11:08:47;;;;;;;2.40;0.65;;;15.80;82.20;;;;;;4067139;29;20063;-67
2021/11/23 11:11:15;;;;;;;3.85;0.90;;;15.90;82.10;;;;;;4067292;29;20056;-70
2021/11/23 11:13:38;;;;;;;6.78;0.75;;;15.90;81.90;;;;;;4067529;29;20131;-66
2021/11/23 11:16:01;;;;;;;4.93;0.80;;;15.90;81.60;;;;;;4067447;29;20056;-65
2021/11/23 11:18:23;;;;;;;4.90;1.17;;;15.90;81.50;;;;;;4067083;29;20064;-65
2021/11/23 11:20:49;;;;;;;2.97;0.77;;;15.90;81.40;;;;;;4067409;29;20104;-65
2021/11/23 11:23:14;;;;;;;7.60;1.13;;;16.00;81.40;;;;;;4066567;29;20071;-65
2021/11/23 11:26:01;;;;;;;2.72;0.55;;;15.90;81.30;;;;;;4067189;29;20060;-66
2021/11/23 11:28:52;;;;;;;4.50;0.80;;;15.90;81.30;;;;;;4067645;29;20441;-65
2021/11/23 11:31:44;;;;;;;4.35;0.80;;;15.90;81.50;;;;;;4066850;29;20052;-66
2021/11/23 11:34:16;;;;;;;;;;;15.90;81.50;;;;;;4041114;29;20060;-65
2021/11/23 11:36:39;;;;;;;;;;;16.00;81.70;;;;;;4067446;29;20026;-65
2021/11/23 11:39:01;;;;;;;4.53;0.85;;;15.90;81.80;;;;;;4067079;29;20427;-65
2021/11/23 11:41:38;;;;;;;8.10;0.98;;;15.90;81.90;;;;;;4066316;29;20047;-66
2021/11/23 11:44:11;;;;;;;3.33;0.70;;;15.90;81.90;;;;;;4066416;29;20099;-65
2021/11/23 11:46:34;;;;;;;4.57;1.00;;;16.00;82.10;;;;;;4066051;29;20068;-65
2021/11/23 11:48:56;;;;;;;6.88;1.02;;;16.00;82.10;;;;;;4065680;29;20092;-65
2021/11/23 11:51:28;;;;;;;5.05;0.90;;;16.10;81.80;;;;;;4063374;29;20074;-66
2021/11/23 11:53:51;;;;;;;4.38;0.77;;;16.20;81.20;;;;;;4064046;29;20067;-65
2021/11/23 11:56:16;;;;;;;2.42;0.80;;;16.30;80.80;;;;;;4067033;29;20800;-66
2021/11/23 11:58:55;;;;;;;7.68;1.05;;;16.40;80.40;;;;;;4066731;29;20070;-67
2021/11/23 12:01:30;;;;;;;3.90;0.90;;;16.40;80.00;;;;;;4067296;29;20058;-66
2021/11/23 12:04:12;;;;;;;5.82;1.10;;;16.40;79.90;;;;;;4066954;29;20060;-66
2021/11/23 12:07:00;;;;;;;2.75;1.27;;;16.40;79.90;;;;;;4066932;29;20068;-66
2021/11/23 12:09:26;;;;;;;4.15;0.80;;;16.40;80.00;;;;;;4066514;29;20496;-67
2021/11/23 12:11:48;;;;;;;4.85;0.80;;;16.40;80.20;;;;;;4066584;29;20142;-66
2021/11/23 12:14:13;;;;;;;4.30;0.98;;;16.30;80.30;;;;;;4066465;29;20512;-67
2021/11/23 12:16:43;;;;;;;6.28;1.08;;;16.30;80.40;;;;;;4066521;29;20401;-67
2021/11/23 12:19:29;;;;;;;2.65;0.63;;;16.30;80.50;;;;;;4066958;29;20052;-67
2021/11/23 12:21:54;;;;;;;6.80;0.75;;;16.20;80.30;;;;;;4066190;29;20912;-67
2021/11/23 12:24:25;;;;;;;3.13;1.10;;;16.20;80.10;;;;;;4066319;29;20692;-67
2021/11/23 12:26:53;;;;;;;4.40;0.82;;;16.10;79.80;;;;;;4066225;29;20063;-67
2021/11/23 12:29:16;;;;;;;5.28;1.00;;;16.10;80.80;;;;;;4065935;29;20077;-66
2021/11/23 12:31:47;;;;;;;3.03;0.68;;;16.00;80.80;;;;;;4064770;29;20084;-67